Terminal Aerodrome Forecast
Issued by NWS Twin Cities, MN

Home | Current Version | Previous Version | Graphics & Text | Print | Product List | Glossary On
Versions: 1 2 3 4 5 6 7 8 9 10 11 12 13 14 15 16 17 18 19 20 21 22 23 24 25 26 27 28
000
FTUS43 KMPX 251244 AAA
TAFMSP
TAF AMD
KMSP 251244Z 2513/2618 24008KT 6SM BR VCSH BKN018
      TEMPO 2513/2515 4SM -RA BR SCT018 BKN025
     FM251500 25009KT P6SM SCT015 OVC070
     FM251800 27015G22KT P6SM BKN025 OVC050
     FM260200 29012KT P6SM OVC050=

USA.gov is the U.S. government's official web portal to all federal, state and local government web resources and services.